Time;durP1;ratioP1;P1;durP2;ratioP2;P2;SDS_P1;SDS_P2;PMS_P1;PMS_P2;Temp;Humidity;BMP_temperature;BMP_pressure;BME280_temperature;BME280_humidity;BME280_pressure;Samples;Min_cycle;Max_cycle;Signal;HPM_P1;HPM_P2
2021/11/22 00:01:06;;;;;;;5.75;1.92;;;4.50;92.80;;;;;;5063428;28;20098;-56
2021/11/22 00:03:33;;;;;;;8.05;1.48;;;4.60;92.80;;;;;;5063113;28;20045;-57
2021/11/22 00:06:00;;;;;;;10.60;1.60;;;4.60;93.00;;;;;;5065136;28;20052;-57
2021/11/22 00:08:26;;;;;;;4.07;1.55;;;4.90;93.00;;;;;;5060153;28;20049;-58
2021/11/22 00:10:53;;;;;;;8.73;1.65;;;4.50;92.80;;;;;;5066224;28;20079;-57
2021/11/22 00:13:20;;;;;;;7.10;1.77;;;4.60;92.80;;;;;;5068387;28;20471;-56
2021/11/22 00:15:47;;;;;;;6.38;1.55;;;4.60;92.90;;;;;;5070068;28;20106;-56
2021/11/22 00:18:14;;;;;;;11.20;2.08;;;4.50;92.80;;;;;;5069618;28;20106;-56
2021/11/22 00:20:41;;;;;;;4.97;1.45;;;4.60;92.90;;;;;;5069780;28;20087;-56
2021/11/22 00:23:08;;;;;;;3.35;1.80;;;4.50;92.80;;;;;;5069822;28;20047;-56
2021/11/22 00:25:34;;;;;;;4.68;1.35;;;4.50;92.80;;;;;;5067180;28;20045;-55
2021/11/22 00:28:01;;;;;;;8.07;1.98;;;4.50;93.20;;;;;;5065426;28;20094;-58
2021/11/22 00:30:28;;;;;;;9.07;1.52;;;4.60;92.90;;;;;;5071178;28;20098;-55
2021/11/22 00:32:57;;;;;;;5.85;1.70;;;4.60;92.80;;;;;;5069091;28;20105;-57
2021/11/22 00:35:32;;;;;;;8.25;1.92;;;4.60;92.80;;;;;;5069073;28;20143;-57
2021/11/22 00:38:05;;;;;;;11.45;1.85;;;4.50;92.90;;;;;;5069107;28;20676;-56
2021/11/22 00:40:33;;;;;;;9.85;1.40;;;4.50;92.90;;;;;;5068632;28;20048;-55
2021/11/22 00:43:01;;;;;;;4.07;1.60;;;4.50;93.20;;;;;;5069011;28;20393;-57
2021/11/22 00:45:28;;;;;;;6.95;1.38;;;4.60;93.10;;;;;;5070853;28;20048;-58
2021/11/22 00:47:57;;;;;;;8.75;1.98;;;4.60;93.00;;;;;;5071848;28;20048;-57
2021/11/22 00:50:24;;;;;;;5.45;2.35;;;4.60;93.40;;;;;;5069632;28;20444;-55
2021/11/22 00:52:51;;;;;;;10.20;2.58;;;4.60;93.20;;;;;;5062770;28;20045;-57
2021/11/22 00:55:18;;;;;;;5.55;2.50;;;4.60;93.10;;;;;;5069861;28;20048;-57
2021/11/22 00:57:45;;;;;;;5.53;2.22;;;4.60;93.20;;;;;;5069903;28;20131;-55
2021/11/22 01:00:12;;;;;;;10.88;1.92;;;4.60;93.10;;;;;;5070081;28;20448;-56
2021/11/22 01:02:39;;;;;;;8.43;2.50;;;4.70;93.00;;;;;;5069235;28;20049;-58
2021/11/22 01:05:07;;;;;;;7.95;1.98;;;4.60;92.90;;;;;;5069969;28;20044;-56
2021/11/22 01:07:34;;;;;;;6.68;2.35;;;4.60;93.00;;;;;;5068958;28;20052;-55
2021/11/22 01:10:00;;;;;;;10.68;1.52;;;4.50;93.10;;;;;;5069367;28;20079;-55
2021/11/22 01:12:30;;;;;;;8.27;2.38;;;4.60;93.10;;;;;;5069202;28;20053;-55
2021/11/22 01:15:00;;;;;;;7.53;1.83;;;4.50;93.10;;;;;;5067811;28;20060;-57
2021/11/22 01:17:27;;;;;;;8.90;1.88;;;4.60;93.10;;;;;;5069481;28;20052;-54
2021/11/22 01:19:54;;;;;;;6.40;2.00;;;4.60;93.10;;;;;;5069543;28;20053;-56
2021/11/22 01:22:22;;;;;;;6.53;2.20;;;4.50;93.30;;;;;;5068164;28;20044;-57
2021/11/22 01:24:48;;;;;;;7.90;2.33;;;4.40;93.20;;;;;;5068510;28;20102;-57
2021/11/22 01:27:35;;;;;;;9.25;2.40;;;4.40;93.30;;;;;;5062530;28;20535;-55
2021/11/22 01:30:08;;;;;;;7.35;2.03;;;4.40;93.50;;;;;;5067843;28;20048;-55
2021/11/22 01:32:35;;;;;;;4.03;1.90;;;4.40;93.40;;;;;;5067168;28;20040;-55
2021/11/22 01:35:01;;;;;;;4.60;1.63;;;4.40;93.30;;;;;;5068033;28;20048;-57
2021/11/22 01:37:28;;;;;;;11.15;2.13;;;4.40;93.50;;;;;;5067223;28;20056;-55
2021/11/22 01:39:55;;;;;;;11.80;2.55;;;4.40;93.40;;;;;;5067636;28;20040;-55
2021/11/22 01:42:22;;;;;;;4.57;2.70;;;4.40;93.40;;;;;;5067285;28;20102;-57
2021/11/22 01:44:48;;;;;;;7.35;2.58;;;4.40;93.40;;;;;;5067839;28;20109;-58
2021/11/22 01:47:15;;;;;;;5.43;2.70;;;4.40;93.30;;;;;;5069285;28;20056;-56
2021/11/22 01:49:42;;;;;;;11.52;1.77;;;4.40;93.30;;;;;;5069311;28;20080;-56
2021/11/22 01:52:10;;;;;;;6.55;2.83;;;4.40;93.30;;;;;;5069181;28;20048;-57
2021/11/22 01:54:37;;;;;;;10.32;2.58;;;4.40;93.40;;;;;;5068339;28;20041;-57
2021/11/22 01:57:04;;;;;;;8.02;1.80;;;4.40;93.30;;;;;;5069575;28;20295;-57
2021/11/22 01:59:32;;;;;;;7.03;1.67;;;4.40;93.40;;;;;;5069153;28;20051;-55
2021/11/22 02:01:59;;;;;;;10.38;2.50;;;4.40;93.50;;;;;;5061051;28;20049;-55
2021/11/22 02:04:27;;;;;;;11.73;1.60;;;4.30;93.40;;;;;;5049449;28;20059;-55
2021/11/22 02:06:54;;;;;;;13.10;1.63;;;4.40;93.40;;;;;;4707264;27;9999960;-56
2021/11/22 02:09:21;;;;;;;7.47;1.58;;;4.40;93.40;;;;;;5068911;28;20499;-56
2021/11/22 02:11:47;;;;;;;6.22;1.75;;;4.40;93.30;;;;;;5069204;28;20143;-57
2021/11/22 02:14:14;;;;;;;10.55;1.85;;;4.40;93.40;;;;;;5067463;28;20049;-57
2021/11/22 02:16:41;;;;;;;7.18;1.98;;;4.30;93.40;;;;;;5067687;28;20806;-57
2021/11/22 02:19:08;;;;;;;7.38;1.55;;;4.30;93.70;;;;;;5069554;28;20079;-57
2021/11/22 02:21:34;;;;;;;10.15;1.70;;;4.30;93.70;;;;;;5069354;28;20625;-55
2021/11/22 02:24:01;;;;;;;6.65;1.48;;;4.30;93.60;;;;;;5068618;28;20072;-55
2021/11/22 02:26:30;;;;;;;8.10;1.35;;;4.30;93.50;;;;;;5068525;28;20045;-56
2021/11/22 02:28:56;;;;;;;10.23;1.95;;;4.30;93.70;;;;;;5067140;28;20174;-56
2021/11/22 02:31:23;;;;;;;13.43;1.77;;;4.40;93.60;;;;;;5065705;28;20079;-56
2021/11/22 02:33:53;;;;;;;10.52;2.08;;;4.30;93.60;;;;;;5068299;28;20094;-57
2021/11/22 02:36:20;;;;;;;3.33;1.95;;;4.30;93.60;;;;;;5068535;28;20068;-55
2021/11/22 02:38:47;;;;;;;6.68;2.13;;;4.30;93.70;;;;;;5067996;28;20114;-55
2021/11/22 02:41:16;;;;;;;5.95;2.70;;;4.30;93.50;;;;;;5067766;28;20102;-56
2021/11/22 02:43:43;;;;;;;8.88;1.75;;;4.40;93.50;;;;;;5067892;28;20184;-57
2021/11/22 02:46:10;;;;;;;8.93;1.98;;;4.40;93.50;;;;;;5067147;28;20152;-56
2021/11/22 02:48:37;;;;;;;6.95;1.77;;;4.40;93.40;;;;;;5068207;28;20060;-56
2021/11/22 02:51:07;;;;;;;8.68;1.67;;;4.40;93.40;;;;;;5067763;28;20075;-59
2021/11/22 02:53:34;;;;;;;8.77;1.75;;;4.40;93.40;;;;;;5060638;28;20140;-54
2021/11/22 02:56:03;;;;;;;9.13;1.95;;;4.30;93.50;;;;;;5067997;28;20045;-56
2021/11/22 02:58:30;;;;;;;7.35;1.52;;;4.30;93.60;;;;;;5068082;28;20105;-58
2021/11/22 03:00:57;;;;;;;10.82;1.95;;;4.30;93.50;;;;;;5067698;28;20526;-56
2021/11/22 03:03:29;;;;;;;12.55;1.98;;;4.30;93.50;;;;;;5067915;28;20060;-57
2021/11/22 03:06:10;;;;;;;11.00;2.15;;;4.30;93.60;;;;;;5067539;28;20048;-57
2021/11/22 03:08:40;;;;;;;9.95;1.70;;;4.30;93.80;;;;;;5068015;28;20500;-55
2021/11/22 03:11:08;;;;;;;20.60;3.40;;;4.30;93.60;;;;;;5067211;28;20051;-56
2021/11/22 03:13:34;;;;;;;6.93;2.25;;;4.20;93.60;;;;;;5068026;28;20091;-55
2021/11/22 03:16:01;;;;;;;13.05;2.63;;;4.20;93.70;;;;;;5067484;28;20550;-55
2021/11/22 03:18:29;;;;;;;11.90;2.70;;;4.20;93.60;;;;;;5066671;28;20143;-59
2021/11/22 03:20:57;;;;;;;8.10;1.73;;;4.20;93.60;;;;;;5067351;28;20143;-57
2021/11/22 03:23:24;;;;;;;9.85;1.70;;;4.20;93.70;;;;;;5067488;28;20048;-56
2021/11/22 03:25:50;;;;;;;7.22;1.60;;;4.20;93.70;;;;;;5067531;28;20072;-60
2021/11/22 03:28:18;;;;;;;9.15;1.90;;;4.10;94.00;;;;;;5065009;28;20118;-57
2021/11/22 03:30:45;;;;;;;10.57;2.40;;;4.10;93.90;;;;;;5067064;28;20157;-56
2021/11/22 03:33:16;;;;;;;11.73;2.28;;;4.10;93.90;;;;;;5067560;28;20549;-55
2021/11/22 03:35:43;;;;;;;13.50;2.03;;;4.10;94.00;;;;;;5067244;28;20549;-55
2021/11/22 03:38:12;;;;;;;12.55;2.55;;;4.10;93.80;;;;;;5067630;28;20458;-56
2021/11/22 03:40:40;;;;;;;7.20;1.88;;;4.20;94.00;;;;;;5065870;28;20044;-56
2021/11/22 03:45:38;;;;;;;6.53;1.90;;;4.10;93.80;;;;;;5067225;28;20084;-57
2021/11/22 03:48:05;;;;;;;5.88;1.65;;;4.10;94.10;;;;;;5067653;28;20056;-56
2021/11/22 03:50:32;;;;;;;14.20;2.28;;;4.10;93.80;;;;;;5068661;28;20136;-56
2021/11/22 03:52:59;;;;;;;14.93;2.80;;;4.00;93.90;;;;;;5066802;28;20052;-56
2021/11/22 03:55:26;;;;;;;10.88;1.90;;;4.00;94.00;;;;;;5066919;28;20052;-55
2021/11/22 03:57:52;;;;;;;13.25;3.08;;;4.00;94.00;;;;;;5067014;28;20576;-55
2021/11/22 04:00:19;;;;;;;6.82;1.38;;;4.00;94.00;;;;;;5067361;28;20068;-56
2021/11/22 04:02:46;;;;;;;11.57;2.50;;;4.00;93.90;;;;;;5060155;28;20090;-55
2021/11/22 04:05:13;;;;;;;10.18;2.08;;;3.90;93.90;;;;;;5060493;28;20048;-55
2021/11/22 04:07:40;;;;;;;8.50;2.00;;;3.90;94.30;;;;;;5067134;28;20049;-55
2021/11/22 04:10:07;;;;;;;15.30;3.67;;;3.90;94.40;;;;;;5066227;28;20044;-57
2021/11/22 04:12:33;;;;;;;9.63;1.75;;;3.90;94.10;;;;;;5066480;28;20076;-57
2021/11/22 04:15:00;;;;;;;16.42;3.55;;;4.00;94.10;;;;;;5066789;28;20040;-57
2021/11/22 04:17:27;;;;;;;12.75;2.10;;;4.00;93.90;;;;;;5066939;28;20098;-55
2021/11/22 04:19:54;;;;;;;6.40;1.52;;;4.10;93.90;;;;;;5065924;28;20052;-56
2021/11/22 04:22:21;;;;;;;11.38;1.70;;;4.10;93.80;;;;;;5066951;28;20076;-57
2021/11/22 04:24:47;;;;;;;13.15;2.70;;;4.20;94.00;;;;;;5066822;28;20103;-56
2021/11/22 04:27:14;;;;;;;12.30;1.77;;;4.20;93.70;;;;;;5066970;28;20123;-55
2021/11/22 04:29:41;;;;;;;13.57;1.95;;;4.20;93.80;;;;;;5066524;28;20080;-55
2021/11/22 04:32:09;;;;;;;8.38;2.08;;;4.20;93.80;;;;;;5066580;28;20095;-56
2021/11/22 04:34:38;;;;;;;7.93;2.10;;;4.20;93.80;;;;;;5066870;28;20044;-56
2021/11/22 04:37:05;;;;;;;10.50;1.58;;;4.20;94.00;;;;;;5066958;28;20036;-54
2021/11/22 04:39:33;;;;;;;10.57;2.38;;;4.20;93.80;;;;;;5066214;28;20113;-56
2021/11/22 04:42:00;;;;;;;6.43;1.48;;;4.30;93.90;;;;;;5066861;28;20065;-56
2021/11/22 04:44:26;;;;;;;8.90;1.70;;;4.30;94.00;;;;;;5066278;28;20052;-57
2021/11/22 04:46:53;;;;;;;10.85;1.63;;;4.30;93.80;;;;;;5066500;28;20040;-56
2021/11/22 04:49:20;;;;;;;5.63;1.52;;;4.30;93.80;;;;;;5066737;28;20109;-57
2021/11/22 04:51:47;;;;;;;12.50;1.95;;;4.30;93.80;;;;;;5066418;28;20060;-55
2021/11/22 04:54:13;;;;;;;4.63;1.42;;;4.30;93.90;;;;;;5066522;28;20197;-56
2021/11/22 04:56:40;;;;;;;20.25;2.05;;;4.30;94.00;;;;;;5066007;28;20610;-57
2021/11/22 04:59:07;;;;;;;10.00;1.67;;;4.40;93.80;;;;;;5066995;28;20083;-58
2021/11/22 05:01:34;;;;;;;9.15;1.67;;;4.40;93.70;;;;;;5070268;28;20128;-55
2021/11/22 05:04:01;;;;;;;14.23;2.63;;;4.30;93.70;;;;;;5069726;28;20056;-55
2021/11/22 05:06:27;;;;;;;8.38;1.60;;;4.40;93.60;;;;;;5068720;28;20040;-56
2021/11/22 05:08:54;;;;;;;8.15;1.92;;;4.30;93.90;;;;;;5070217;28;20075;-57
2021/11/22 05:11:21;;;;;;;7.22;1.83;;;4.30;93.70;;;;;;5069508;28;20127;-57
2021/11/22 05:13:48;;;;;;;9.13;1.80;;;4.30;93.70;;;;;;5070126;28;20127;-55
2021/11/22 05:16:15;;;;;;;19.50;2.88;;;4.30;93.70;;;;;;5061189;28;20080;-56
2021/11/22 05:18:41;;;;;;;15.63;1.88;;;4.30;93.70;;;;;;5076602;28;20040;-55
2021/11/22 05:21:08;;;;;;;5.93;1.92;;;4.20;93.60;;;;;;5067765;28;20086;-56
2021/11/22 05:23:35;;;;;;;6.47;1.33;;;4.30;93.70;;;;;;5068806;28;20090;-56
2021/11/22 05:26:02;;;;;;;9.57;1.73;;;4.20;93.70;;;;;;5068607;28;20080;-55
2021/11/22 05:28:28;;;;;;;15.40;2.20;;;4.20;93.70;;;;;;5069036;28;20135;-58
2021/11/22 05:30:55;;;;;;;9.85;1.67;;;4.20;93.70;;;;;;5068840;28;20132;-55
2021/11/22 05:33:22;;;;;;;6.07;1.30;;;4.20;93.80;;;;;;5067425;28;20423;-59
2021/11/22 05:35:49;;;;;;;9.55;2.10;;;4.20;93.80;;;;;;5067193;28;20102;-57
2021/11/22 05:38:15;;;;;;;11.45;1.42;;;4.10;93.90;;;;;;5068605;28;20040;-54
2021/11/22 05:40:42;;;;;;;11.85;2.00;;;4.10;93.80;;;;;;5067742;28;20075;-57
2021/11/22 05:43:09;;;;;;;10.30;1.98;;;4.20;93.80;;;;;;5068463;28;20616;-57
2021/11/22 05:45:36;;;;;;;10.48;1.85;;;4.20;93.80;;;;;;5068700;28;20091;-55
2021/11/22 05:48:06;;;;;;;6.45;1.85;;;4.10;93.80;;;;;;5067219;28;20048;-57
2021/11/22 05:50:34;;;;;;;10.32;1.70;;;4.10;93.90;;;;;;5068036;28;20104;-56
2021/11/22 05:53:02;;;;;;;7.97;1.70;;;4.10;93.90;;;;;;5068110;28;20094;-56
2021/11/22 05:55:33;;;;;;;16.50;2.20;;;4.10;93.90;;;;;;5067950;28;20499;-56
2021/11/22 05:58:04;;;;;;;9.45;2.95;;;4.10;93.80;;;;;;5068283;28;20558;-56
2021/11/22 06:00:31;;;;;;;12.20;3.00;;;4.20;93.90;;;;;;5068512;28;20306;-57
2021/11/22 06:02:58;;;;;;;9.05;1.88;;;4.30;93.80;;;;;;5067255;28;20063;-55
2021/11/22 06:05:25;;;;;;;15.02;2.22;;;4.10;93.80;;;;;;5067028;28;20049;-56
2021/11/22 06:07:52;;;;;;;12.60;2.60;;;4.10;93.70;;;;;;5066205;28;20102;-55
2021/11/22 06:10:19;;;;;;;8.43;1.20;;;4.10;93.80;;;;;;5066052;28;20084;-56
2021/11/22 06:12:45;;;;;;;6.70;1.73;;;4.10;93.80;;;;;;5067699;28;20080;-56
2021/11/22 06:15:12;;;;;;;6.72;1.85;;;4.10;93.70;;;;;;5068127;28;20087;-54
2021/11/22 06:17:39;;;;;;;9.00;1.67;;;4.10;93.80;;;;;;5067021;28;20095;-57
2021/11/22 06:20:06;;;;;;;13.07;1.85;;;4.10;93.80;;;;;;5067808;28;20510;-55
2021/11/22 06:22:33;;;;;;;9.70;1.88;;;4.20;93.80;;;;;;5068548;28;20480;-54
2021/11/22 06:25:00;;;;;;;9.48;1.58;;;4.10;93.70;;;;;;5068530;28;20506;-57
2021/11/22 06:27:27;;;;;;;12.18;1.63;;;4.10;93.80;;;;;;5068132;28;20080;-55
2021/11/22 06:29:54;;;;;;;15.63;3.78;;;4.10;93.70;;;;;;5067343;28;20044;-56
2021/11/22 06:32:25;;;;;;;15.68;2.00;;;4.10;93.70;;;;;;5055601;28;20083;-57
2021/11/22 06:34:52;;;;;;;9.10;1.52;;;4.20;93.70;;;;;;5067393;28;20582;-57
2021/11/22 06:37:19;;;;;;;17.85;2.33;;;4.20;93.70;;;;;;5067984;28;20472;-55
2021/11/22 06:39:46;;;;;;;19.55;3.03;;;4.20;93.60;;;;;;5068406;28;20045;-57
2021/11/22 06:42:12;;;;;;;9.95;1.48;;;4.20;93.60;;;;;;5068073;28;20067;-56
2021/11/22 06:44:39;;;;;;;8.77;1.65;;;4.20;93.60;;;;;;5068228;28;20052;-58
2021/11/22 06:47:06;;;;;;;8.38;1.48;;;4.20;93.50;;;;;;5067817;28;20098;-57
2021/11/22 06:49:33;;;;;;;14.30;2.55;;;4.20;93.70;;;;;;5066182;28;20056;-57
2021/11/22 06:52:00;;;;;;;11.63;2.13;;;4.20;93.50;;;;;;5067284;28;20114;-57
2021/11/22 06:54:27;;;;;;;10.27;2.25;;;4.20;93.50;;;;;;5067464;28;20045;-57
2021/11/22 06:56:54;;;;;;;16.30;2.22;;;4.30;93.40;;;;;;5067744;28;20132;-59
2021/11/22 06:59:21;;;;;;;12.55;2.72;;;4.30;93.40;;;;;;5065375;28;20182;-56
2021/11/22 07:01:47;;;;;;;8.75;1.45;;;4.30;93.30;;;;;;5067958;28;20090;-57
2021/11/22 07:04:14;;;;;;;9.32;2.00;;;4.30;93.30;;;;;;5067585;28;20052;-55
2021/11/22 07:06:41;;;;;;;4.80;1.30;;;4.20;93.30;;;;;;5066795;28;20487;-57
2021/11/22 07:09:08;;;;;;;6.05;1.55;;;4.30;93.30;;;;;;5065911;28;20496;-58
2021/11/22 07:11:35;;;;;;;6.28;1.42;;;4.20;93.30;;;;;;5063971;28;20075;-58
2021/11/22 07:14:03;;;;;;;14.82;1.98;;;4.20;93.30;;;;;;5066506;28;20076;-55
2021/11/22 07:16:30;;;;;;;13.15;1.75;;;4.20;93.30;;;;;;5065525;28;20087;-56
2021/11/22 07:18:57;;;;;;;13.15;1.92;;;4.20;93.40;;;;;;5064671;28;20266;-56
2021/11/22 07:21:24;;;;;;;10.98;1.80;;;4.20;93.30;;;;;;5067499;28;20072;-55
2021/11/22 07:23:51;;;;;;;12.25;2.33;;;4.20;93.40;;;;;;5067273;28;20072;-58
2021/11/22 07:26:18;;;;;;;10.65;1.80;;;4.20;93.40;;;;;;5067535;28;20131;-57
2021/11/22 07:28:45;;;;;;;18.80;2.13;;;4.10;93.30;;;;;;5065957;28;20049;-59
2021/11/22 07:31:12;;;;;;;13.73;1.60;;;4.20;93.40;;;;;;5065760;28;20131;-56
2021/11/22 07:33:39;;;;;;;10.25;2.08;;;4.10;93.30;;;;;;5066729;28;20518;-54
2021/11/22 07:36:06;;;;;;;9.55;1.75;;;4.10;93.30;;;;;;5064302;28;20068;-55
2021/11/22 07:38:33;;;;;;;7.97;2.30;;;4.10;93.40;;;;;;5067325;28;20056;-55
2021/11/22 07:40:59;;;;;;;9.55;1.63;;;4.10;93.40;;;;;;5064838;28;20519;-55
2021/11/22 07:43:26;;;;;;;12.30;2.13;;;4.20;93.40;;;;;;5065236;28;20593;-52
2021/11/22 07:45:53;;;;;;;8.68;2.22;;;4.20;93.40;;;;;;5066109;28;20657;-55
2021/11/22 07:48:20;;;;;;;9.13;2.13;;;4.10;93.40;;;;;;5067243;28;20045;-52
2021/11/22 07:50:47;;;;;;;8.45;2.42;;;4.10;93.40;;;;;;5064315;28;20083;-54
2021/11/22 07:53:32;;;;;;;7.32;1.40;;;4.20;93.40;;;;;;5061518;28;20131;-54
2021/11/22 07:55:59;;;;;;;14.07;2.45;;;4.50;93.50;;;;;;5064326;28;20090;-61
2021/11/22 07:58:26;;;;;;;12.50;2.45;;;4.20;93.60;;;;;;5064785;28;20469;-51
2021/11/22 08:00:53;;;;;;;10.75;2.00;;;4.20;93.50;;;;;;5065979;28;20243;-56
2021/11/22 08:03:20;;;;;;;12.32;2.33;;;4.30;93.60;;;;;;5066238;28;20436;-55
2021/11/22 08:05:49;;;;;;;9.60;1.95;;;4.30;93.60;;;;;;5066479;28;20045;-53
2021/11/22 08:08:16;;;;;;;9.15;1.60;;;4.30;93.60;;;;;;5066508;28;20058;-54
2021/11/22 08:10:54;;;;;;;11.25;2.40;;;4.30;93.60;;;;;;5065514;28;20384;-54
2021/11/22 08:13:21;;;;;;;10.00;1.60;;;4.30;93.80;;;;;;5062063;28;20068;-52
2021/11/22 08:15:47;;;;;;;11.70;1.95;;;4.40;93.60;;;;;;5066173;28;20519;-52
2021/11/22 08:18:16;;;;;;;12.35;2.05;;;4.40;93.60;;;;;;5064698;28;20044;-52
2021/11/22 08:20:43;;;;;;;9.20;2.42;;;4.40;93.70;;;;;;5063640;28;20060;-51
2021/11/22 08:23:09;;;;;;;12.68;2.30;;;4.40;93.70;;;;;;5064492;28;20075;-54
2021/11/22 08:25:36;;;;;;;11.05;2.30;;;4.40;93.70;;;;;;5064089;28;20091;-52
2021/11/22 08:28:03;;;;;;;9.35;1.88;;;4.50;93.70;;;;;;5065445;28;20091;-53
2021/11/22 08:30:31;;;;;;;20.35;2.72;;;4.50;93.70;;;;;;5064672;28;20072;-52
2021/11/22 08:32:58;;;;;;;7.13;2.70;;;4.50;93.70;;;;;;5065480;28;20052;-53
2021/11/22 08:35:25;;;;;;;15.73;2.95;;;4.60;93.70;;;;;;5069731;28;20063;-57
2021/11/22 08:37:51;;;;;;;8.55;3.00;;;4.60;94.00;;;;;;5067399;28;20139;-55
2021/11/22 08:40:20;;;;;;;11.30;2.60;;;4.60;93.80;;;;;;5068480;28;20610;-52
2021/11/22 08:42:46;;;;;;;8.48;2.30;;;4.70;93.80;;;;;;5066747;28;20055;-52
2021/11/22 08:45:13;;;;;;;8.52;2.35;;;4.70;93.80;;;;;;5068930;28;20087;-51
2021/11/22 08:47:40;;;;;;;15.40;2.40;;;4.80;93.80;;;;;;5066326;28;20128;-54
2021/11/22 08:50:07;;;;;;;14.65;1.85;;;4.80;93.90;;;;;;5067838;28;20084;-54
2021/11/22 08:52:34;;;;;;;12.40;2.00;;;4.90;93.90;;;;;;5055982;28;20135;-53
2021/11/22 08:55:02;;;;;;;11.95;2.33;;;4.90;93.90;;;;;;5061754;28;20136;-51
2021/11/22 08:57:29;;;;;;;12.45;1.90;;;5.00;93.90;;;;;;5065657;28;20080;-52
2021/11/22 08:59:55;;;;;;;6.95;2.00;;;5.00;94.00;;;;;;5067899;28;20495;-54
2021/11/22 09:02:22;;;;;;;13.95;2.33;;;5.10;94.00;;;;;;5069413;28;20092;-53
2021/11/22 09:04:51;;;;;;;11.82;3.05;;;5.20;94.00;;;;;;5069341;28;20388;-55
2021/11/22 09:07:17;;;;;;;9.15;1.88;;;5.20;94.00;;;;;;5069210;28;20083;-54
2021/11/22 09:09:45;;;;;;;10.57;2.75;;;5.30;94.00;;;;;;5069802;28;20043;-57
2021/11/22 09:12:11;;;;;;;10.88;2.00;;;5.40;93.90;;;;;;5068801;28;20041;-56
2021/11/22 09:14:38;;;;;;;13.45;3.25;;;5.40;93.90;;;;;;5068137;28;20109;-58
2021/11/22 09:17:05;;;;;;;5.28;1.63;;;5.50;93.80;;;;;;5069609;28;20612;-53
2021/11/22 09:19:33;;;;;;;12.02;1.52;;;5.60;93.90;;;;;;5067428;28;20052;-54
2021/11/22 09:22:00;;;;;;;15.52;1.73;;;5.60;93.80;;;;;;5069561;28;20051;-56
2021/11/22 09:24:26;;;;;;;12.13;1.65;;;5.70;93.80;;;;;;5068547;28;20044;-53
2021/11/22 09:26:53;;;;;;;10.15;1.80;;;5.50;93.60;;;;;;5068547;28;20538;-53
2021/11/22 09:29:21;;;;;;;10.38;1.48;;;5.80;93.60;;;;;;5069548;28;20044;-54
2021/11/22 09:31:47;;;;;;;9.98;1.60;;;5.80;93.60;;;;;;5069839;28;20586;-56
2021/11/22 09:34:16;;;;;;;9.70;2.10;;;5.80;93.60;;;;;;5069657;28;20045;-55
2021/11/22 09:36:45;;;;;;;12.43;1.63;;;5.90;93.50;;;;;;5062955;28;20079;-54
2021/11/22 09:39:12;;;;;;;4.90;1.60;;;6.00;93.60;;;;;;5069623;28;20091;-56
2021/11/22 09:41:39;;;;;;;11.52;2.50;;;6.00;93.50;;;;;;5069340;28;20095;-55
2021/11/22 09:44:07;;;;;;;8.80;2.60;;;6.10;93.50;;;;;;5069608;28;20040;-54
2021/11/22 09:46:33;;;;;;;6.32;1.50;;;6.10;93.40;;;;;;5068402;28;20084;-56
2021/11/22 09:49:00;;;;;;;12.23;2.08;;;6.20;93.40;;;;;;5069340;28;20506;-56
2021/11/22 09:51:27;;;;;;;9.98;1.80;;;6.30;93.30;;;;;;5069306;28;20056;-53
2021/11/22 09:53:54;;;;;;;8.85;2.10;;;6.30;93.30;;;;;;5057574;28;20135;-52
2021/11/22 09:56:20;;;;;;;13.07;2.05;;;6.40;93.30;;;;;;5069526;28;20075;-58
2021/11/22 09:58:47;;;;;;;10.93;2.03;;;6.40;93.30;;;;;;5068008;28;20103;-53
2021/11/22 10:01:15;;;;;;;13.68;2.28;;;6.50;93.20;;;;;;5069948;28;20087;-54
2021/11/22 10:03:58;;;;;;;6.38;2.03;;;6.50;93.20;;;;;;5069331;28;20044;-57
2021/11/22 10:06:26;;;;;;;12.38;2.08;;;6.60;93.10;;;;;;5068273;28;20112;-51
2021/11/22 10:08:53;;;;;;;9.55;1.27;;;6.60;93.20;;;;;;5068941;28;20435;-55
2021/11/22 10:11:20;;;;;;;8.65;2.40;;;6.70;93.10;;;;;;5068665;28;20075;-52
2021/11/22 10:13:47;;;;;;;11.88;1.70;;;6.70;93.20;;;;;;5068860;28;20132;-52
2021/11/22 10:16:16;;;;;;;11.07;1.48;;;7.00;93.20;;;;;;5067318;28;20484;-57
2021/11/22 10:18:45;;;;;;;8.10;1.65;;;6.80;93.00;;;;;;5068723;28;20044;-54
2021/11/22 10:21:14;;;;;;;6.50;1.40;;;6.90;92.90;;;;;;5067462;28;20106;-56
2021/11/22 10:23:42;;;;;;;4.72;1.65;;;6.90;92.80;;;;;;5069018;28;20048;-54
2021/11/22 10:26:11;;;;;;;9.98;1.92;;;6.90;92.80;;;;;;5065149;28;20095;-53
2021/11/22 10:28:39;;;;;;;10.43;1.77;;;7.00;92.80;;;;;;5068840;28;20056;-53
2021/11/22 10:31:11;;;;;;;20.90;3.17;;;7.10;92.60;;;;;;5068953;28;20088;-52
2021/11/22 10:33:38;;;;;;;11.52;1.88;;;7.10;92.70;;;;;;5068861;28;20059;-54
2021/11/22 10:36:07;;;;;;;13.05;1.83;;;7.10;92.70;;;;;;5066880;28;20124;-53
2021/11/22 10:38:48;;;;;;;18.45;4.40;;;7.20;92.50;;;;;;5068592;28;20076;-52
2021/11/22 10:41:27;;;;;;;9.38;1.77;;;7.20;92.40;;;;;;5067929;28;20504;-55
2021/11/22 10:44:11;;;;;;;14.88;2.38;;;7.30;92.40;;;;;;5067202;28;20484;-52
2021/11/22 10:46:54;;;;;;;9.35;2.33;;;7.40;92.30;;;;;;5067962;28;20311;-54
2021/11/22 10:49:34;;;;;;;11.80;2.57;;;7.40;92.30;;;;;;5061142;28;20052;-55
2021/11/22 10:52:35;;;;;;;9.73;1.58;;;7.40;92.10;;;;;;5068018;28;20128;-54
2021/11/22 10:55:07;;;;;;;9.70;1.73;;;7.50;92.10;;;;;;5068016;28;20519;-52
2021/11/22 10:57:34;;;;;;;14.25;2.20;;;7.50;92.30;;;;;;5067770;28;20066;-59
2021/11/22 11:00:04;;;;;;;12.43;2.42;;;7.50;92.30;;;;;;5068234;28;20049;-54
2021/11/22 11:02:42;;;;;;;10.05;1.65;;;7.60;92.30;;;;;;5066518;28;20059;-54
2021/11/22 11:05:09;;;;;;;7.88;1.60;;;7.60;91.70;;;;;;5067967;28;20550;-56
2021/11/22 11:07:37;;;;;;;11.75;1.92;;;7.70;92.10;;;;;;5066409;28;20040;-56
2021/11/22 11:10:05;;;;;;;10.38;1.90;;;7.80;92.10;;;;;;5066708;28;20098;-56
2021/11/22 11:12:32;;;;;;;8.45;1.70;;;7.80;92.00;;;;;;5062685;28;20048;-53
2021/11/22 11:14:59;;;;;;;11.23;2.40;;;7.90;91.80;;;;;;5066461;28;20044;-53
2021/11/22 11:17:34;;;;;;;14.00;2.05;;;7.90;91.90;;;;;;5067367;28;20070;-55
2021/11/22 11:20:11;;;;;;;12.65;2.47;;;8.00;91.60;;;;;;5066708;28;20076;-54
2021/11/22 11:22:38;;;;;;;19.85;2.25;;;8.00;91.30;;;;;;5067437;28;20052;-56
2021/11/22 11:25:05;;;;;;;6.53;1.48;;;8.10;91.60;;;;;;5067911;28;20115;-55
2021/11/22 11:27:40;;;;;;;8.88;1.80;;;8.10;91.40;;;;;;5066931;28;20123;-56
2021/11/22 11:30:08;;;;;;;15.73;1.85;;;8.10;91.30;;;;;;5067464;28;20495;-53
2021/11/22 11:32:34;;;;;;;17.83;2.38;;;8.10;91.30;;;;;;5067301;28;20074;-53
2021/11/22 11:35:02;;;;;;;11.90;2.08;;;8.20;91.40;;;;;;5067061;28;20071;-52
2021/11/22 11:37:45;;;;;;;13.80;2.55;;;8.20;91.30;;;;;;5067680;28;20098;-55
2021/11/22 11:40:24;;;;;;;10.38;1.85;;;8.30;91.00;;;;;;5061060;28;20348;-54
2021/11/22 11:43:12;;;;;;;15.13;1.70;;;8.30;91.10;;;;;;5067416;28;20119;-55
2021/11/22 11:45:44;;;;;;;11.00;2.00;;;8.40;90.80;;;;;;5063168;28;20580;-55
2021/11/22 11:48:48;;;;;;;16.17;3.08;;;8.40;90.80;;;;;;5066865;28;20295;-53
2021/11/22 11:51:19;;;;;;;12.30;2.25;;;8.40;90.20;;;;;;5067117;28;20056;-55
2021/11/22 11:54:19;;;;;;;12.85;2.25;;;8.40;90.80;;;;;;5066763;28;20040;-54
2021/11/22 11:56:51;;;;;;;6.97;1.92;;;8.40;90.50;;;;;;5067170;28;20075;-55
2021/11/22 11:59:42;;;;;;;12.30;2.63;;;8.50;91.00;;;;;;5066706;28;20110;-54
2021/11/22 12:02:22;;;;;;;9.23;1.60;;;8.50;90.10;;;;;;5066796;28;20080;-55
2021/11/22 12:04:59;;;;;;;12.05;2.15;;;8.60;90.40;;;;;;5066633;28;20094;-51
2021/11/22 12:07:36;;;;;;;12.45;1.67;;;8.60;90.50;;;;;;5066670;28;20049;-54
2021/11/22 12:10:10;;;;;;;15.32;2.55;;;8.60;90.60;;;;;;5065309;28;20045;-57
2021/11/22 12:12:46;;;;;;;14.38;2.47;;;8.60;90.70;;;;;;5066594;28;20416;-55
2021/11/22 12:15:16;;;;;;;16.83;3.05;;;8.70;90.30;;;;;;5066823;28;20586;-55
2021/11/22 12:18:04;;;;;;;6.50;1.90;;;8.70;90.60;;;;;;5066623;28;20044;-55
2021/11/22 12:20:34;;;;;;;11.52;2.00;;;8.70;90.70;;;;;;5066933;28;20111;-54
2021/11/22 12:23:06;;;;;;;11.15;1.42;;;8.70;90.20;;;;;;5066518;28;20056;-54
2021/11/22 12:25:39;;;;;;;8.23;1.88;;;8.80;89.60;;;;;;5066827;28;20499;-53
2021/11/22 12:28:30;;;;;;;19.17;3.40;;;8.70;90.00;;;;;;5067027;28;20098;-55
2021/11/22 12:31:09;;;;;;;11.52;2.17;;;8.80;88.50;;;;;;5062430;28;20044;-55
2021/11/22 12:33:57;;;;;;;12.05;2.33;;;8.70;89.40;;;;;;5066750;28;20641;-53
2021/11/22 12:36:24;;;;;;;13.70;2.40;;;8.70;90.00;;;;;;5066649;28;20411;-55
2021/11/22 12:38:51;;;;;;;18.42;2.63;;;8.80;90.10;;;;;;5066407;28;20048;-53
2021/11/22 12:41:38;;;;;;;9.13;2.00;;;8.80;89.70;;;;;;5065704;28;20049;-53
2021/11/22 12:44:15;;;;;;;11.40;2.25;;;8.80;89.20;;;;;;5066746;28;20045;-57
2021/11/22 12:46:56;;;;;;;12.70;2.03;;;8.80;88.90;;;;;;5065261;28;20053;-52
2021/11/22 12:49:36;;;;;;;13.77;2.15;;;8.90;90.10;;;;;;5066212;28;20105;-54
2021/11/22 12:52:16;;;;;;;18.65;2.03;;;8.90;88.80;;;;;;5066361;28;20055;-53
2021/11/22 12:54:55;;;;;;;12.18;1.80;;;8.90;88.60;;;;;;5066317;28;20052;-54
2021/11/22 12:57:34;;;;;;;23.08;4.38;;;8.90;88.70;;;;;;5066660;28;20083;-52
2021/11/22 13:00:25;;;;;;;14.40;1.90;;;8.90;88.90;;;;;;5066226;28;20052;-50
2021/11/22 13:02:58;;;;;;;16.52;3.00;;;8.90;88.30;;;;;;5066058;28;20511;-51